Time,TemperatureF,DewpointF,PressureIn,WindDirection,WindDirectionDegrees,WindSpeedMPH,WindSpeedGustMPH,Humidity,HourlyPrecipIn,Conditions,Clouds,dailyrainin,SoftwareType,DateUTC
2013-02-17 00:00:00,17.7,13.7,29.89,WNW,295,2.0,2.0,84,0.00,,,0.00,Wunderground v.1.15,2013-02-17 05:00:00,
2013-02-17 00:30:00,15.5,11.8,29.88,WNW,295,2.0,9.0,85,0.00,,,0.00,Wunderground v.1.15,2013-02-17 05:30:00,
2013-02-17 01:00:00,15.1,11.4,29.88,WNW,292,5.0,5.0,85,0.00,,,0.00,Wunderground v.1.15,2013-02-17 06:00:00,
2013-02-17 01:30:00,15.0,11.0,29.87,WNW,292,4.0,4.0,84,0.00,,,0.00,Wunderground v.1.15,2013-02-17 06:30:00,
2013-02-17 02:00:00,15.7,11.7,29.87,WNW,291,4.0,4.0,84,0.00,,,0.00,Wunderground v.1.15,2013-02-17 07:00:00,
2013-02-17 02:30:00,15.5,11.5,29.86,WNW,282,5.0,9.0,84,0.00,,,0.00,Wunderground v.1.15,2013-02-17 07:30:00,
2013-02-17 03:00:00,15.6,12.2,29.85,West,279,5.0,5.0,86,0.00,,,0.00,Wunderground v.1.15,2013-02-17 08:00:00,
2013-02-17 03:30:00,16.2,13.0,29.85,West,279,4.0,9.0,87,0.00,,,0.00,Wunderground v.1.15,2013-02-17 08:30:00,
2013-02-17 04:00:00,16.7,13.8,29.86,WNW,294,4.0,9.0,88,0.00,,,0.00,Wunderground v.1.15,2013-02-17 09:00:00,
2013-02-17 04:30:00,17.2,14.5,29.86,WNW,300,5.0,5.0,89,0.00,,,0.00,Wunderground v.1.15,2013-02-17 09:30:00,
2013-02-17 05:00:00,18.3,15.9,29.87,NNW,344,4.0,9.0,90,0.00,,,0.00,Wunderground v.1.15,2013-02-17 10:00:00,
2013-02-17 05:30:00,18.0,15.6,29.88,North,360,12.0,12.0,90,0.00,,,0.00,Wunderground v.1.15,2013-02-17 10:30:00,
2013-02-17 06:00:00,17.8,15.4,29.89,NNE,13,9.0,9.0,90,0.00,,,0.00,Wunderground v.1.15,2013-02-17 11:00:00,
2013-02-17 06:30:00,17.0,14.6,29.90,North,5,6.0,6.0,90,0.00,,,0.00,Wunderground v.1.15,2013-02-17 11:30:00,
2013-02-17 07:00:00,16.1,13.7,29.91,North,355,7.0,9.0,90,0.00,,,0.00,Wunderground v.1.15,2013-02-17 12:00:00,
2013-02-17 07:30:00,15.6,13.2,29.91,NNW,342,7.0,10.0,90,0.00,,,0.00,Wunderground v.1.15,2013-02-17 12:30:00,
2013-02-17 08:00:00,15.0,12.3,29.92,NNW,348,6.0,6.0,89,0.00,,,0.00,Wunderground v.1.15,2013-02-17 13:00:00,
2013-02-17 08:30:00,15.9,13.5,29.92,North,355,6.0,9.0,90,0.00,,,0.00,Wunderground v.1.15,2013-02-17 13:30:00,
2013-02-17 09:00:00,16.6,13.1,29.92,North,350,6.0,9.0,86,0.00,,,0.00,Wunderground v.1.15,2013-02-17 14:00:00,
2013-02-17 09:30:00,17.6,13.0,29.93,North,355,7.0,7.0,82,0.00,,,0.00,Wunderground v.1.15,2013-02-17 14:30:00,
2013-02-17 10:00:00,17.0,13.3,29.93,NW,309,6.0,9.0,85,0.00,,,0.00,Wunderground v.1.15,2013-02-17 15:00:00,
2013-02-17 10:30:00,14.8,10.3,29.94,NW,308,13.0,14.0,82,0.00,,,0.00,Wunderground v.1.15,2013-02-17 15:30:00,
2013-02-17 11:00:00,15.2,10.1,29.95,WNW,294,9.0,9.0,80,0.00,,,0.00,Wunderground v.1.15,2013-02-17 16:00:00,
2013-02-17 11:30:00,14.1,8.2,29.95,WNW,294,10.0,10.0,77,0.00,,,0.00,Wunderground v.1.15,2013-02-17 16:30:00,
2013-02-17 12:00:00,12.7,6.9,29.96,WNW,283,11.0,11.0,77,0.00,,,0.00,Wunderground v.1.15,2013-02-17 17:00:00,
2013-02-17 12:30:00,13.3,6.9,29.96,West,275,9.0,9.0,75,0.00,,,0.00,Wunderground v.1.15,2013-02-17 17:30:00,
2013-02-17 13:00:00,13.1,7.2,29.96,NW,314,12.0,12.0,77,0.00,,,0.00,Wunderground v.1.15,2013-02-17 18:00:00,
2013-02-17 13:30:00,11.9,5.5,29.97,West,273,11.0,12.0,75,0.00,,,0.00,Wunderground v.1.15,2013-02-17 18:30:00,
2013-02-17 14:00:00,11.7,4.7,29.97,WNW,294,11.0,15.0,73,0.00,,,0.00,Wunderground v.1.15,2013-02-17 19:00:00,
2013-02-17 14:30:00,12.1,5.1,29.97,WNW,301,11.0,15.0,73,0.00,,,0.00,Wunderground v.1.15,2013-02-17 19:30:00,
2013-02-17 15:00:00,11.8,5.1,29.99,WNW,299,11.0,12.0,74,0.00,,,0.00,Wunderground v.1.15,2013-02-17 20:00:00,
2013-02-17 15:30:00,11.8,4.5,30.00,NW,321,14.0,14.0,72,0.00,,,0.00,Wunderground v.1.15,2013-02-17 20:30:00,
2013-02-17 16:00:00,12.1,5.1,30.00,WNW,290,10.0,12.0,73,0.00,,,0.00,Wunderground v.1.15,2013-02-17 21:00:00,
2013-02-17 16:30:00,12.8,5.2,30.01,WNW,302,9.0,11.0,71,0.00,,,0.00,Wunderground v.1.15,2013-02-17 21:30:00,
2013-02-17 17:00:00,11.9,6.1,30.01,West,263,7.0,9.0,77,0.00,,,0.00,Wunderground v.1.15,2013-02-17 22:00:00,
2013-02-17 17:30:00,12.1,7.1,30.02,West,278,6.0,6.0,80,0.00,,,0.00,Wunderground v.1.15,2013-02-17 22:30:00,
2013-02-17 18:00:00,12.2,8.8,30.04,WNW,301,5.0,5.0,86,0.00,,,0.00,Wunderground v.1.15,2013-02-17 23:00:00,
2013-02-17 18:30:00,12.4,9.0,30.06,WNW,294,5.0,5.0,86,0.00,,,0.00,Wunderground v.1.15,2013-02-17 23:30:00,
2013-02-17 19:00:00,12.5,9.4,30.07,NW,308,5.0,9.0,87,0.00,,,0.00,Wunderground v.1.15,2013-02-18 00:00:00,
2013-02-17 19:30:00,12.3,9.4,30.08,NW,313,5.0,9.0,88,0.00,,,0.00,Wunderground v.1.15,2013-02-18 00:30:00,
2013-02-17 20:00:00,11.7,8.3,30.09,NW,304,6.0,9.0,86,0.00,,,0.00,Wunderground v.1.15,2013-02-18 01:00:00,
2013-02-17 20:30:00,11.3,7.9,30.10,West,277,7.0,9.0,86,0.00,,,0.00,Wunderground v.1.15,2013-02-18 01:30:00,
2013-02-17 21:00:00,11.0,7.4,30.11,West,265,7.0,7.0,85,0.00,,,0.00,Wunderground v.1.15,2013-02-18 02:00:00,
2013-02-17 21:30:00,10.9,6.8,30.12,WNW,296,5.0,9.0,83,0.00,,,0.00,Wunderground v.1.15,2013-02-18 02:30:00,
2013-02-17 22:00:00,10.7,6.3,30.13,WNW,287,5.0,9.0,82,0.00,,,0.00,Wunderground v.1.15,2013-02-18 03:00:00,
2013-02-17 22:30:00,10.6,5.4,30.15,NW,308,6.0,6.0,79,0.00,,,0.00,Wunderground v.1.15,2013-02-18 03:30:00,
2013-02-17 23:00:00,10.4,5.2,30.16,WNW,282,4.0,4.0,79,0.00,,,0.00,Wunderground v.1.15,2013-02-18 04:00:00,
2013-02-17 23:30:00,10.3,5.4,30.17,West,279,3.0,9.0,80,0.00,,,0.00,Wunderground v.1.15,2013-02-18 04:30:00,